Time;durP1;ratioP1;P1;durP2;ratioP2;P2;SDS_P1;SDS_P2;PMS_P1;PMS_P2;Temp;Humidity;BMP_temperature;BMP_pressure;BME280_temperature;BME280_humidity;BME280_pressure;Samples;Min_cycle;Max_cycle;Signal;HPM_P1;HPM_P2
2022/09/19 00:00:41;;;;;;;;;;;4.80;99.90;;;;;;4989382;28;19914;-83
2022/09/19 00:03:07;;;;;;;;;;;4.80;99.90;;;;;;4973847;28;19918;-83
2022/09/19 00:05:37;;;;;;;;;;;4.80;99.90;;;;;;4973739;28;19968;-83
2022/09/19 00:08:03;;;;;;;;;;;4.80;99.90;;;;;;4989075;28;20038;-82
2022/09/19 00:10:28;;;;;;;;;;;4.90;99.90;;;;;;4973082;28;20126;-83
2022/09/19 00:12:55;;;;;;;;;;;4.90;99.90;;;;;;4988509;28;20046;-83
2022/09/19 00:15:22;;;;;;;;;;;4.90;99.90;;;;;;4972768;28;19921;-83
2022/09/19 00:17:50;;;;;;;;;;;4.90;99.90;;;;;;4973840;28;20458;-83
2022/09/19 00:20:16;;;;;;;;;;;4.80;99.90;;;;;;4988650;28;20038;-83
2022/09/19 00:24:45;;;;;;;;;;;4.80;99.90;;;;;;4973956;28;19920;-83
2022/09/19 00:25:28;;;;;;;;;;;4.90;99.90;;;;;;4989098;28;20034;-82
2022/09/19 00:27:54;;;;;;;;;;;4.90;99.90;;;;;;4989304;28;20073;-83
2022/09/19 00:30:20;;;;;;;;;;;4.90;99.90;;;;;;4973044;28;20378;-82
2022/09/19 00:32:46;;;;;;;;;;;5.00;99.90;;;;;;4988992;28;19997;-83
2022/09/19 00:35:12;;;;;;;;;;;5.10;99.90;;;;;;4990788;28;20045;-83
2022/09/19 00:37:56;;;;;;;;;;;5.10;99.90;;;;;;4976625;28;20389;-83
2022/09/19 00:40:21;;;;;;;;;;;5.10;99.90;;;;;;4992730;28;20028;-83
2022/09/19 00:42:49;;;;;;;;;;;5.10;99.90;;;;;;4976207;28;19914;-82
2022/09/19 00:45:15;;;;;;;;;;;5.10;99.90;;;;;;4976089;28;20030;-82
2022/09/19 00:47:47;;;;;;;;;;;5.20;99.90;;;;;;4976292;28;20036;-83
2022/09/19 00:50:19;;;;;;;;;;;5.20;99.90;;;;;;4992640;28;19914;-83
2022/09/19 00:52:48;;;;;;;;;;;5.20;99.90;;;;;;4976169;28;20005;-83
2022/09/19 00:55:14;;;;;;;;;;;5.30;99.90;;;;;;4991293;28;20001;-83
2022/09/19 00:57:52;;;;;;;;;;;5.30;99.90;;;;;;4976094;28;20049;-83
2022/09/19 01:00:18;;;;;;;;;;;5.40;99.90;;;;;;4991768;28;20054;-83
2022/09/19 01:02:46;;;;;;;;;;;5.40;99.90;;;;;;4974908;28;20024;-83
2022/09/19 01:05:12;;;;;;;;;;;5.40;99.90;;;;;;4991224;28;20015;-83
2022/09/19 01:07:55;;;;;;;;;;;5.50;99.90;;;;;;4975112;28;19914;-82
2022/09/19 01:10:34;;;;;;;;;;;5.50;99.90;;;;;;4991046;28;20370;-82
2022/09/19 01:13:09;;;;;;;;;;;5.60;99.90;;;;;;4990631;28;20416;-83
2022/09/19 01:15:39;;;;;;;;;;;5.60;99.90;;;;;;4990737;28;20047;-83
2022/09/19 01:18:06;;;;;;;;;;;5.60;99.90;;;;;;4974673;28;19921;-83
2022/09/19 01:20:42;;;;;;;;;;;5.60;99.90;;;;;;4974442;28;20051;-83
2022/09/19 01:23:26;;;;;;;;;;;5.60;99.90;;;;;;4974576;28;20044;-83
2022/09/19 01:26:11;;;;;;;;;;;5.70;99.90;;;;;;4973985;28;19910;-83
2022/09/19 01:28:46;;;;;;;;;;;5.60;99.90;;;;;;4974184;28;20047;-83
2022/09/19 01:31:19;;;;;;;;;;;5.70;99.90;;;;;;4974274;28;20128;-83
2022/09/19 01:33:53;;;;;;;;;;;5.70;99.90;;;;;;4990611;28;20041;-83
2022/09/19 01:36:20;;;;;;;;;;;5.70;99.90;;;;;;4990409;28;20559;-83
2022/09/19 01:38:47;;;;;;;;;;;5.70;99.90;;;;;;4974507;28;20037;-83
2022/09/19 01:41:15;;;;;;;;;;;5.70;99.90;;;;;;4990868;28;20041;-83
2022/09/19 01:43:41;;;;;;;;;;;5.70;99.90;;;;;;4974206;28;20000;-83
2022/09/19 01:46:17;;;;;;;;;;;5.80;99.90;;;;;;4974366;28;20178;-83
2022/09/19 01:48:54;;;;;;;;;;;5.70;99.90;;;;;;4990608;28;20036;-83
2022/09/19 01:51:26;;;;;;;;;;;5.70;99.90;;;;;;4974121;28;20055;-83
2022/09/19 01:54:01;;;;;;;;;;;5.80;99.90;;;;;;4974064;28;19958;-83
2022/09/19 01:56:58;;;;;;;;;;;5.80;99.90;;;;;;4986991;28;20052;-83
2022/09/19 01:59:31;;;;;;;;;;;5.80;99.90;;;;;;4973714;28;20131;-83
2022/09/19 02:02:07;;;;;;;;;;;5.80;99.90;;;;;;4973976;28;19936;-83
2022/09/19 02:04:41;;;;;;;;;;;5.80;99.90;;;;;;4973706;28;19961;-83
2022/09/19 02:07:20;;;;;;;;;;;5.80;99.90;;;;;;4973501;28;19985;-82
2022/09/19 02:09:49;;;;;;;;;;;5.80;99.90;;;;;;4989910;28;19971;-83
2022/09/19 02:12:17;;;;;;;;;;;5.80;99.90;;;;;;4974115;28;20102;-82
2022/09/19 02:14:51;;;;;;;;;;;5.80;99.90;;;;;;4989546;28;19952;-83
2022/09/19 02:17:24;;;;;;;;;;;5.80;99.90;;;;;;4990300;28;20040;-82
2022/09/19 02:20:02;;;;;;;;;;;5.80;99.90;;;;;;4973829;28;20041;-83
2022/09/19 02:22:31;;;;;;;;;;;5.80;99.90;;;;;;4973360;28;20134;-83
2022/09/19 02:25:08;;;;;;;;;;;5.90;99.90;;;;;;4989544;28;20041;-83
2022/09/19 02:27:38;;;;;;;;;;;5.90;99.90;;;;;;4973787;28;19910;-83
2022/09/19 02:30:08;;;;;;;;;;;5.90;99.90;;;;;;4989741;28;20119;-83
2022/09/19 02:32:47;;;;;;;;;;;5.90;99.90;;;;;;4989377;28;20511;-83
2022/09/19 02:35:19;;;;;;;;;;;5.90;99.90;;;;;;4972928;28;20044;-83
2022/09/19 02:38:16;;;;;;;;;;;5.90;99.90;;;;;;4989232;28;20374;-83
2022/09/19 02:40:44;;;;;;;;;;;5.90;99.90;;;;;;4973165;28;19917;-82
2022/09/19 02:43:30;;;;;;;;;;;6.00;99.90;;;;;;4972715;28;19918;-83
2022/09/19 02:46:01;;;;;;;;;;;5.90;99.90;;;;;;4985557;28;19910;-83
2022/09/19 02:48:42;;;;;;;;;;;6.00;99.90;;;;;;4973188;28;19917;-83
2022/09/19 02:51:16;;;;;;;;;;;6.00;99.90;;;;;;4973359;28;19918;-83
2022/09/19 02:53:44;;;;;;;;;;;6.00;99.90;;;;;;4973058;28;20040;-82
2022/09/19 02:56:16;;;;;;;;;;;6.00;99.90;;;;;;4989079;28;20048;-82
2022/09/19 02:58:47;;;;;;;;;;;6.00;99.90;;;;;;4972170;28;20252;-83
2022/09/19 03:01:16;;;;;;;;;;;6.00;99.90;;;;;;4972364;28;20017;-82
2022/09/19 03:06:42;;;;;;;;;;;6.00;99.90;;;;;;4973551;28;20119;-83
2022/09/19 03:09:11;;;;;;;;;;;6.00;99.90;;;;;;4988752;28;20547;-83
2022/09/19 03:11:39;;;;;;;;;;;6.00;99.90;;;;;;4988695;28;19945;-83
2022/09/19 03:14:06;;;;;;;;;;;6.00;99.90;;;;;;4972395;28;20044;-82
2022/09/19 03:16:35;;;;;;;;;;;6.00;99.90;;;;;;4972386;28;20145;-83
2022/09/19 03:19:04;;;;;;;;;;;6.00;99.90;;;;;;4988881;28;20041;-82
2022/09/19 03:21:30;;;;;;;;;;;6.00;99.90;;;;;;4972626;28;19957;-83
2022/09/19 03:23:58;;;;;;;;;;;6.00;99.90;;;;;;4972146;28;19913;-83
2022/09/19 03:26:27;;;;;;;;;;;6.00;99.90;;;;;;4972578;28;20458;-83
2022/09/19 03:28:54;;;;;;;;;;;6.00;99.90;;;;;;4972333;28;19910;-83
2022/09/19 03:31:21;;;;;;;;;;;6.00;99.90;;;;;;4972431;28;20520;-83
2022/09/19 03:33:48;;;;;;;;;;;6.00;99.90;;;;;;4971617;28;19910;-83
2022/09/19 03:36:14;;;;;;;;;;;6.00;99.90;;;;;;4971775;28;20051;-83
2022/09/19 03:38:44;;;;;;;;;;;6.00;99.90;;;;;;4972029;28;19918;-82
2022/09/19 03:41:11;;;;;;;;;;;6.00;99.90;;;;;;4971572;28;20060;-83
2022/09/19 03:43:37;;;;;;;;;;;6.00;99.90;;;;;;4971211;28;20037;-83
2022/09/19 03:46:16;;;;;;;;;;;6.10;99.90;;;;;;4987811;28;20094;-83
2022/09/19 03:48:45;;;;;;;;;;;6.10;99.90;;;;;;4988065;28;20234;-84
2022/09/19 03:51:11;;;;;;;;;;;6.10;99.90;;;;;;4988013;28;20044;-82
2022/09/19 03:53:37;;;;;;;;;;;6.10;99.90;;;;;;4988151;28;19921;-82
2022/09/19 03:56:04;;;;;;;;;;;6.10;99.90;;;;;;4971369;28;20635;-83
2022/09/19 03:58:34;;;;;;;;;;;6.10;99.90;;;;;;4971786;28;20041;-83
2022/09/19 04:01:01;;;;;;;;;;;6.10;99.90;;;;;;4971733;28;20413;-83
2022/09/19 04:03:27;;;;;;;;;;;6.10;99.90;;;;;;4971076;28;20041;-83
2022/09/19 04:05:54;;;;;;;;;;;6.10;99.90;;;;;;4970834;28;20454;-83
2022/09/19 04:08:21;;;;;;;;;;;6.10;99.90;;;;;;4970747;28;19917;-82
2022/09/19 04:10:47;;;;;;;;;;;6.10;99.90;;;;;;4970569;28;20036;-83
2022/09/19 04:20:10;;;;;;;;;;;6.10;99.90;;;;;;4972488;28;20107;-83
2022/09/19 04:22:53;;;;;;;;;;;6.10;99.90;;;;;;4971927;28;20100;-84
2022/09/19 04:25:39;;;;;;;;;;;6.10;99.90;;;;;;4944958;28;20135;-83
2022/09/19 04:28:23;;;;;;;;;;;6.20;99.90;;;;;;4970838;28;20036;-82
2022/09/19 04:30:49;;;;;;;;;;;6.20;99.90;;;;;;4971403;28;19918;-83
2022/09/19 04:33:14;;;;;;;;;;;6.20;99.90;;;;;;4970652;28;20062;-83
2022/09/19 04:35:43;;;;;;;;;;;6.20;99.90;;;;;;4971454;28;20147;-83
2022/09/19 04:38:11;;;;;;;;;;;6.20;99.90;;;;;;4971970;28;20039;-85
2022/09/19 04:40:38;;;;;;;;;;;6.20;99.90;;;;;;4971909;28;19961;-85
2022/09/19 04:43:05;;;;;;;;;;;6.20;99.90;;;;;;4988149;28;20105;-83
2022/09/19 04:45:31;;;;;;;;;;;6.30;99.90;;;;;;4971554;28;19961;-83
2022/09/19 04:48:27;;;;;;;;;;;6.20;99.90;;;;;;4987500;28;19981;-83
2022/09/19 04:50:53;;;;;;;;;;;6.30;99.90;;;;;;4970889;28;19919;-83
2022/09/19 04:53:23;;;;;;;;;;;6.20;99.90;;;;;;4986671;28;20281;-82
2022/09/19 04:55:49;;;;;;;;;;;6.20;99.90;;;;;;4971621;28;20005;-83
2022/09/19 04:58:15;;;;;;;;;;;6.30;99.90;;;;;;4971631;28;19922;-83
2022/09/19 05:00:49;;;;;;;;;;;6.30;99.90;;;;;;4971322;28;20044;-83
2022/09/19 05:03:16;;;;;;;;;;;6.30;99.90;;;;;;4970476;28;20040;-83
2022/09/19 05:05:50;;;;;;;;;;;6.30;99.90;;;;;;4970460;28;20009;-83
2022/09/19 05:08:24;;;;;;;;;;;6.30;99.90;;;;;;4972127;28;20321;-87
2022/09/19 05:10:51;;;;;;;;;;;6.30;99.90;;;;;;4987645;28;20454;-87
2022/09/19 05:13:17;;;;;;;;;;;6.30;99.90;;;;;;4971532;28;20048;-87
2022/09/19 05:15:43;;;;;;;;;;;6.30;99.90;;;;;;4987610;28;19981;-87
2022/09/19 05:18:10;;;;;;;;;;;6.40;99.90;;;;;;4971445;28;20045;-87
2022/09/19 05:20:37;;;;;;;;;;;6.30;99.90;;;;;;4989785;28;20049;-86
2022/09/19 05:23:03;;;;;;;;;;;6.40;99.90;;;;;;4974411;28;20079;-87
2022/09/19 05:25:29;;;;;;;;;;;6.40;99.90;;;;;;4975035;28;20036;-88
2022/09/19 05:28:04;;;;;;;;;;;6.30;99.90;;;;;;4974473;28;19910;-88
2022/09/19 05:30:31;;;;;;;;;;;6.30;99.90;;;;;;4974594;28;20562;-87
2022/09/19 05:33:08;;;;;;;;;;;6.30;99.90;;;;;;4974336;28;20258;-88
2022/09/19 05:35:40;;;;;;;;;;;6.40;99.90;;;;;;4974902;28;19909;-87
2022/09/19 05:38:20;;;;;;;;;;;6.40;99.90;;;;;;4990818;28;19997;-87
2022/09/19 05:41:02;;;;;;;;;;;6.40;99.90;;;;;;4990583;28;20040;-86
2022/09/19 05:43:44;;;;;;;;;;;6.40;99.90;;;;;;4989692;28;20058;-86
2022/09/19 05:46:10;;;;;;;;;;;6.40;99.90;;;;;;4990336;28;20005;-86
2022/09/19 05:48:39;;;;;;;;;;;6.40;99.90;;;;;;4974235;28;19949;-86
2022/09/19 05:51:06;;;;;;;;;;;6.40;99.90;;;;;;4974554;28;20051;-86
2022/09/19 05:56:27;;;;;;;;;;;6.50;99.90;;;;;;4990969;28;19937;-86
2022/09/19 05:58:59;;;;;;;;;;;6.50;99.90;;;;;;4974348;28;20044;-86
2022/09/19 06:01:26;;;;;;;;;;;6.50;99.90;;;;;;4990505;28;20044;-86
2022/09/19 06:03:51;;;;;;;;;;;6.60;99.90;;;;;;4973490;28;20091;-86
2022/09/19 06:06:19;;;;;;;;;;;6.60;99.90;;;;;;4990272;28;20033;-86
2022/09/19 06:08:47;;;;;;;;;;;6.60;99.90;;;;;;4990108;28;20545;-86
2022/09/19 06:11:14;;;;;;;;;;;6.60;99.90;;;;;;4974013;28;19917;-86
2022/09/19 06:16:25;;;;;;;;;;;6.60;99.90;;;;;;4989714;28;20008;-86
2022/09/19 06:19:10;;;;;;;;;;;6.60;99.90;;;;;;4986992;28;19917;-86
2022/09/19 06:21:36;;;;;;;;;;;6.60;99.90;;;;;;4974029;28;20040;-86
2022/09/19 06:24:02;;;;;;;;;;;6.70;99.90;;;;;;4989679;28;19913;-86
2022/09/19 06:26:28;;;;;;;;;;;6.70;99.90;;;;;;4973216;28;19917;-86
2022/09/19 06:28:55;;;;;;;;;;;6.60;99.90;;;;;;4989499;28;20040;-86
2022/09/19 06:31:20;;;;;;;;;;;6.60;99.90;;;;;;4973156;28;19921;-86
2022/09/19 06:34:06;;;;;;;;;;;6.60;99.90;;;;;;4986712;28;19917;-86
2022/09/19 06:36:37;;;;;;;;;;;6.70;99.90;;;;;;4973560;28;20045;-86
2022/09/19 06:39:06;;;;;;;;;;;6.70;99.90;;;;;;4989681;28;20055;-85
2022/09/19 06:41:47;;;;;;;;;;;6.80;99.90;;;;;;4973436;28;20036;-85
2022/09/19 06:44:30;;;;;;;;;;;6.80;99.90;;;;;;4988575;28;20099;-85
2022/09/19 06:47:04;;;;;;;;;;;6.90;99.90;;;;;;4988913;28;19917;-85
2022/09/19 06:49:50;;;;;;;;;;;6.90;99.90;;;;;;4986220;28;19910;-85
2022/09/19 06:52:24;;;;;;;;;;;7.00;99.90;;;;;;4973601;28;20587;-85
2022/09/19 06:54:51;;;;;;;;;;;6.90;99.90;;;;;;4989075;28;19945;-85
2022/09/19 06:57:16;;;;;;;;;;;7.00;99.90;;;;;;4973050;28;19934;-85
2022/09/19 06:59:43;;;;;;;;;;;6.90;99.90;;;;;;4973617;28;20084;-85
2022/09/19 07:02:10;;;;;;;;;;;7.00;99.90;;;;;;4973156;28;20045;-85
2022/09/19 07:04:36;;;;;;;;;;;7.00;99.90;;;;;;4972430;28;20385;-85
2022/09/19 07:07:13;;;;;;;;;;;7.00;99.90;;;;;;4972980;28;19914;-85
2022/09/19 07:09:46;;;;;;;;;;;7.00;99.90;;;;;;4972963;28;20396;-85
2022/09/19 07:12:12;;;;;;;;;;;7.00;99.90;;;;;;4972625;28;19914;-85
2022/09/19 07:14:38;;;;;;;;;;;7.10;99.90;;;;;;4988777;28;20008;-85
2022/09/19 07:17:04;;;;;;;;;;;7.10;99.90;;;;;;4972677;28;20135;-85
2022/09/19 07:19:30;;;;;;;;;;;7.20;99.90;;;;;;4972044;28;20625;-85
2022/09/19 07:22:28;;;;;;;;;;;7.20;99.90;;;;;;4988663;28;20088;-85
2022/09/19 07:25:13;;;;;;;;;;;7.30;99.90;;;;;;4972113;28;20079;-85
2022/09/19 07:27:52;;;;;;;;;;;7.30;99.90;;;;;;4973090;28;20059;-85
2022/09/19 07:30:18;;;;;;;;;;;7.40;99.90;;;;;;4988998;28;20058;-85
2022/09/19 07:32:44;;;;;;;;;;;7.60;99.90;;;;;;4987514;28;20047;-84
2022/09/19 07:35:11;;;;;;;;;;;7.60;99.90;;;;;;4971981;28;20515;-86
2022/09/19 07:37:39;;;;;;;;;;;7.70;99.90;;;;;;4972637;28;19910;-85
2022/09/19 07:40:28;;;;;;;;;;;7.70;99.90;;;;;;4985780;28;20455;-86
2022/09/19 07:43:02;;;;;;;;;;;7.70;99.90;;;;;;4971629;28;20068;-85
2022/09/19 07:45:48;;;;;;;;;;;7.80;99.90;;;;;;4985697;28;20119;-85
2022/09/19 07:48:42;;;;;;;;;;;7.70;99.90;;;;;;4970674;28;19925;-85
2022/09/19 07:51:27;;;;;;;;;;;7.70;99.90;;;;;;4972928;28;20254;-85
2022/09/19 07:53:54;;;;;;;;;;;7.70;99.90;;;;;;4986878;28;20114;-86
2022/09/19 07:56:20;;;;;;;;;;;7.80;99.90;;;;;;4972125;28;20683;-85
2022/09/19 07:58:45;;;;;;;;;;;7.80;99.90;;;;;;4971490;28;19906;-85
2022/09/19 08:01:12;;;;;;;;;;;7.90;99.90;;;;;;4972325;28;19914;-85
2022/09/19 08:03:58;;;;;;;;;;;7.80;99.90;;;;;;4984484;28;20063;-87
2022/09/19 08:06:37;;;;;;;;;;;7.80;99.90;;;;;;4989043;28;19965;-88
2022/09/19 08:09:04;;;;;;;;;;;7.80;99.90;;;;;;4988405;28;19957;-87
2022/09/19 08:11:49;;;;;;;;;;;7.80;99.90;;;;;;4985778;28;20552;-87
2022/09/19 08:14:15;;;;;;;;;;;7.90;99.90;;;;;;4972689;28;20134;-88
2022/09/19 08:16:41;;;;;;;;;;;7.80;99.90;;;;;;4972789;28;20422;-88
2022/09/19 08:19:08;;;;;;;;;;;7.80;99.90;;;;;;4988318;28;20480;-87
2022/09/19 08:21:34;;;;;;;;;;;7.90;99.90;;;;;;4971680;28;20477;-87
2022/09/19 08:24:02;;;;;;;;;;;7.90;99.90;;;;;;4971489;28;19921;-87
2022/09/19 08:26:28;;;;;;;;;;;7.90;99.90;;;;;;4972397;28;20040;-88
2022/09/19 08:28:55;;;;;;;;;;;8.00;99.90;;;;;;4971545;28;19961;-87
2022/09/19 08:31:24;;;;;;;;;;;8.10;99.90;;;;;;4971838;28;20036;-87
2022/09/19 08:33:50;;;;;;;;;;;8.10;99.90;;;;;;4987819;28;19921;-87
2022/09/19 08:36:17;;;;;;;;;;;8.10;99.90;;;;;;4972097;28;20072;-87
2022/09/19 08:38:49;;;;;;;;;;;8.20;99.90;;;;;;4971814;28;20041;-87
2022/09/19 08:41:14;;;;;;;;;;;8.30;99.90;;;;;;4988507;28;19952;-88
2022/09/19 08:43:56;;;;;;;;;;;8.40;99.90;;;;;;4987590;28;20076;-87
2022/09/19 08:46:33;;;;;;;;;;;8.40;99.90;;;;;;4971876;28;19945;-87
2022/09/19 08:49:11;;;;;;;;;;;8.40;99.90;;;;;;4971401;28;20079;-87
2022/09/19 08:51:51;;;;;;;;;;;8.40;99.90;;;;;;4971691;28;20412;-88
2022/09/19 08:57:52;;;;;;;;;;;8.60;99.90;;;;;;4976674;28;19921;-88
2022/09/19 09:00:22;;;;;;;;;;;8.70;99.90;;;;;;4992756;28;20052;-87
2022/09/19 09:02:49;;;;;;;;;;;8.70;99.90;;;;;;4975401;28;20051;-87
2022/09/19 09:05:20;;;;;;;;;;;8.80;99.90;;;;;;4992375;28;19910;-88
2022/09/19 09:07:48;;;;;;;;;;;9.10;99.90;;;;;;4992381;28;20050;-87
2022/09/19 09:10:57;;;;;;;;;;;9.10;99.90;;;;;;4976275;28;20038;-88
2022/09/19 09:13:58;;;;;;;;;;;9.00;99.90;;;;;;4992568;28;20034;-87
2022/09/19 09:16:42;;;;;;;;;;;9.00;99.90;;;;;;4975733;28;19910;-87
2022/09/19 09:19:35;;;;;;;;;;;8.90;99.90;;;;;;4976234;28;20366;-87
2022/09/19 09:22:04;;;;;;;;;;;9.20;99.90;;;;;;4991324;28;20041;-87
2022/09/19 09:24:41;;;;;;;;;;;9.50;99.90;;;;;;4975329;28;20034;-88
2022/09/19 09:27:22;;;;;;;;;;;9.70;99.90;;;;;;4992086;28;20040;-87
2022/09/19 09:29:53;;;;;;;;;;;9.80;99.90;;;;;;4975401;28;20031;-87
2022/09/19 09:32:30;;;;;;;;;;;9.60;99.90;;;;;;4974274;28;20034;-87
2022/09/19 09:35:00;;;;;;;;;;;9.50;99.90;;;;;;4991239;28;20037;-87
2022/09/19 09:44:13;;;;;;;;;;;9.30;99.90;;;;;;4990191;28;20457;-87
2022/09/19 09:46:48;;;;;;;;;;;9.10;99.90;;;;;;4974581;28;20040;-86
2022/09/19 09:49:14;;;;;;;;;;;9.00;99.90;;;;;;4991487;28;19917;-88
2022/09/19 09:51:40;;;;;;;;;;;9.10;99.90;;;;;;4975812;28;19910;-87
2022/09/19 09:57:36;;;;;;;;;;;9.00;99.90;;;;;;4990633;28;20034;-88
2022/09/19 10:05:46;;;;;;;;;;;9.20;99.90;;;;;;4991111;28;20048;-88
2022/09/19 10:08:18;;;;;;;;;;;9.30;99.90;;;;;;4990044;28;20042;-87
2022/09/19 10:11:06;;;;;;;;;;;9.20;99.90;;;;;;4990408;28;20030;-88
2022/09/19 10:13:39;;;;;;;;;;;9.10;99.90;;;;;;4990931;28;20048;-87
2022/09/19 10:16:06;;;;;;;;;;;9.20;99.90;;;;;;4974480;28;20493;-87
2022/09/19 10:18:41;;;;;;;;;;;9.40;99.90;;;;;;4973766;28;20044;-87
2022/09/19 10:21:10;;;;;;;;;;;9.60;99.90;;;;;;4973923;28;20750;-87
2022/09/19 10:23:45;;;;;;;;;;;9.70;99.90;;;;;;4974460;28;20036;-87
2022/09/19 10:26:25;;;;;;;;;;;9.90;99.90;;;;;;4974558;28;20040;-88
2022/09/19 10:28:59;;;;;;;;;;;10.20;99.90;;;;;;4974634;28;20569;-88
2022/09/19 10:31:49;;;;;;;;;;;10.10;99.90;;;;;;4974784;28;20030;-87
2022/09/19 10:34:27;;;;;;;;;;;9.90;99.90;;;;;;4990651;28;20133;-88
2022/09/19 10:36:54;;;;;;;;;;;9.90;99.90;;;;;;4991110;28;20073;-88
2022/09/19 10:39:21;;;;;;;;;;;9.90;99.90;;;;;;4974734;28;20042;-88
2022/09/19 10:41:47;;;;;;;;;;;9.90;99.90;;;;;;4974050;28;20037;-87
2022/09/19 10:44:24;;;;;;;;;;;9.90;99.90;;;;;;4973674;28;20507;-88
2022/09/19 10:46:54;;;;;;;;;;;10.00;99.90;;;;;;4974482;28;20061;-88
2022/09/19 10:49:46;;;;;;;;;;;10.20;99.90;;;;;;4974111;28;20037;-87
2022/09/19 10:55:23;;;;;;;;;;;10.10;99.90;;;;;;4991551;28;20125;-87
2022/09/19 10:58:03;;;;;;;;;;;9.80;99.90;;;;;;4991600;28;20061;-88
2022/09/19 11:00:34;;;;;;;;;;;9.80;99.90;;;;;;4990843;28;20041;-87
2022/09/19 11:03:16;;;;;;;;;;;10.00;99.90;;;;;;4989701;28;20138;-89
2022/09/19 11:05:42;;;;;;;;;;;10.20;99.90;;;;;;4974507;28;20050;-88
2022/09/19 11:08:23;;;;;;;;;;;10.30;99.90;;;;;;4990403;28;20165;-89
2022/09/19 11:10:48;;;;;;;;;;;10.50;99.90;;;;;;4990754;28;20042;-88
2022/09/19 11:13:29;;;;;;;;;;;11.00;99.90;;;;;;4973742;28;20046;-89
2022/09/19 11:16:06;;;;;;;;;;;11.40;99.90;;;;;;4989812;28;20790;-88
2022/09/19 11:18:43;;;;;;;;;;;11.70;99.90;;;;;;4973637;28;20049;-88
2022/09/19 11:21:25;;;;;;;;;;;11.70;99.90;;;;;;4974298;28;20079;-87
2022/09/19 11:23:57;;;;;;;;;;;11.80;99.90;;;;;;4973734;28;20088;-89
2022/09/19 11:26:23;;;;;;;;;;;11.70;99.90;;;;;;4974121;28;20050;-88
2022/09/19 11:29:06;;;;;;;;;;;11.60;99.90;;;;;;4973812;28;20046;-88
2022/09/19 11:32:06;;;;;;;13.90;6.20;;;11.70;99.90;;;;;;4989502;28;20042;-88
2022/09/19 11:34:40;;;;;;;;;;;11.70;99.90;;;;;;4973459;28;20075;-88
2022/09/19 11:37:25;;;;;;;;;;;11.80;99.90;;;;;;4989859;28;20130;-89
2022/09/19 11:40:01;;;;;;;;;;;12.30;99.90;;;;;;4972677;28;20042;-88
2022/09/19 11:42:32;;;;;;;12.60;4.60;;;13.00;99.90;;;;;;4973296;28;20056;-88
2022/09/19 11:45:05;;;;;;;9.40;4.38;;;13.40;99.90;;;;;;4989916;28;20775;-88
2022/09/19 11:47:53;;;;;;;12.00;4.53;;;14.00;99.90;;;;;;4973681;28;20589;-88
2022/09/19 11:50:41;;;;;;;17.30;4.53;;;14.30;99.90;;;;;;4989429;28;20101;-89
2022/09/19 11:53:13;;;;;;;24.92;9.18;;;13.80;99.90;;;;;;4989903;28;20041;-88
2022/09/19 11:56:36;;;;;;;30.48;10.98;;;13.60;99.90;;;;;;4989914;28;20042;-88
2022/09/19 11:59:32;;;;;;;11.02;3.30;;;13.50;99.90;;;;;;4972962;28;20134;-89
2022/09/19 12:02:19;;;;;;;8.00;3.70;;;13.90;99.90;;;;;;4973007;28;20546;-88
2022/09/19 12:05:15;;;;;;;9.70;3.95;;;14.20;99.90;;;;;;4989014;28;20058;-88
2022/09/19 12:08:14;;;;;;;12.80;4.47;;;14.10;99.90;;;;;;4988884;28;20042;-89
2022/09/19 12:11:08;;;;;;;16.38;4.03;;;13.70;99.90;;;;;;4966544;28;20527;-89
2022/09/19 12:13:47;;;;;;;12.32;3.22;;;13.20;99.90;;;;;;4988853;28;20031;-88
2022/09/19 12:16:50;;;;;;;9.25;3.15;;;12.80;99.90;;;;;;4989079;28;20097;-86
2022/09/19 12:19:40;;;;;;;13.48;4.97;;;12.40;99.90;;;;;;4962331;28;20066;-87
2022/09/19 12:22:17;;;;;;;21.70;7.60;;;12.30;99.90;;;;;;4972749;28;20114;-88
2022/09/19 12:25:12;;;;;;;33.05;12.77;;;12.60;99.90;;;;;;4972477;28;20037;-89
2022/09/19 12:27:46;;;;;;;12.05;5.25;;;13.00;99.90;;;;;;4989178;28;20027;-89
2022/09/19 12:30:14;;;;;;;12.05;4.03;;;13.30;99.90;;;;;;4988738;28;20053;-89
2022/09/19 12:33:06;;;;;;;10.95;3.97;;;13.50;99.90;;;;;;4972707;28;20086;-89
2022/09/19 12:35:57;;;;;;;12.52;3.80;;;13.30;99.90;;;;;;4989011;28;20023;-87
2022/09/19 12:41:30;;;;;;;10.90;3.80;;;13.40;99.90;;;;;;4989241;28;20262;-89
2022/09/19 12:44:41;;;;;;;12.50;4.20;;;13.30;99.90;;;;;;4988865;28;20058;-88
2022/09/19 12:47:20;;;;;;;9.30;2.58;;;13.40;99.90;;;;;;4971431;28;20039;-88
2022/09/19 12:50:15;;;;;;;6.47;3.45;;;13.10;99.90;;;;;;4972514;28;20069;-88
2022/09/19 12:52:48;;;;;;;12.98;3.45;;;13.20;99.90;;;;;;4988670;28;20034;-89
2022/09/19 12:55:26;;;;;;;10.13;2.67;;;13.30;99.90;;;;;;4972369;28;20038;-89
2022/09/19 12:58:20;;;;;;;9.30;3.17;;;13.60;99.90;;;;;;4972312;28;20139;-88
2022/09/19 13:00:48;;;;;;;10.95;3.55;;;13.60;99.90;;;;;;4972038;28;20123;-88
2022/09/19 13:03:26;;;;;;;6.60;2.20;;;14.00;99.90;;;;;;4988708;28;20039;-89
2022/09/19 13:06:10;;;;;;;10.65;2.92;;;14.00;99.90;;;;;;4988329;28;20031;-87
2022/09/19 13:08:48;;;;;;;13.97;3.30;;;13.90;99.90;;;;;;4972499;28;20085;-89
2022/09/19 13:11:29;;;;;;;16.00;3.22;;;13.70;99.90;;;;;;4972702;28;20046;-89
2022/09/19 13:14:03;;;;;;;6.80;2.83;;;13.70;99.90;;;;;;4988653;28;20039;-88
2022/09/19 13:25:33;;;;;;;17.40;3.07;;;13.60;99.90;;;;;;4988713;28;20038;-89
2022/09/19 13:28:18;;;;;;;10.15;2.28;;;13.50;99.90;;;;;;4972581;28;20073;-89
2022/09/19 13:30:59;;;;;;;10.25;2.50;;;13.40;99.90;;;;;;4988626;28;20563;-89
2022/09/19 13:33:35;;;;;;;14.15;3.17;;;13.30;99.90;;;;;;4989048;28;20069;-89
2022/09/19 13:36:13;;;;;;;9.05;2.20;;;13.10;99.90;;;;;;4988028;28;20047;-89
2022/09/19 13:38:49;;;;;;;15.97;3.67;;;12.70;99.90;;;;;;4988243;28;20035;-87
2022/09/19 13:41:26;;;;;;;8.40;2.60;;;12.20;99.90;;;;;;4988551;28;20042;-87
2022/09/19 13:44:08;;;;;;;17.40;3.80;;;11.90;99.90;;;;;;4974973;28;20829;-87
2022/09/19 13:47:08;;;;;;;9.33;3.43;;;11.90;99.90;;;;;;4991938;28;20031;-88
2022/09/19 13:49:38;;;;;;;7.60;2.60;;;12.10;99.90;;;;;;4976118;28;20038;-88
2022/09/19 13:52:09;;;;;;;8.35;2.20;;;12.00;99.90;;;;;;4976670;28;20522;-88
2022/09/19 13:55:02;;;;;;;7.10;2.20;;;11.70;99.90;;;;;;4975552;28;20071;-88
2022/09/19 13:57:30;;;;;;;10.40;2.35;;;11.40;99.90;;;;;;4975341;28;19968;-88
2022/09/19 13:59:58;;;;;;;5.35;1.90;;;11.40;99.90;;;;;;4975536;28;20782;-89
2022/09/19 14:02:59;;;;;;;4.45;2.15;;;11.40;99.90;;;;;;4991195;28;20083;-87
2022/09/19 14:05:24;;;;;;;;;;;11.30;99.90;;;;;;4975364;28;20050;-80
2022/09/19 14:07:53;;;;;;;;;;;11.30;99.90;;;;;;4990322;28;20491;-78
2022/09/19 14:10:48;;;;;;;;;;;11.30;99.90;;;;;;4976072;28;20056;-90
2022/09/19 14:13:32;;;;;;;8.10;4.45;;;11.20;99.90;;;;;;4989951;28;20064;-89
2022/09/19 14:16:04;;;;;;;9.00;4.00;;;11.50;99.90;;;;;;4991589;28;20067;-90
2022/09/19 14:18:47;;;;;;;7.20;2.65;;;11.80;99.90;;;;;;4991743;28;20035;-89
2022/09/19 14:21:34;;;;;;;6.20;2.70;;;11.90;99.90;;;;;;4991900;28;20065;-89
2022/09/19 14:24:19;;;;;;;;;;;11.60;99.90;;;;;;4976664;28;20047;-88
2022/09/19 14:30:19;;;;;;;;;;;11.20;99.90;;;;;;4974393;28;20405;-89
2022/09/19 14:33:03;;;;;;;;;;;11.00;99.90;;;;;;4958930;28;20138;-89
2022/09/19 14:35:34;;;;;;;;;;;11.10;99.90;;;;;;4971585;28;20668;-90
2022/09/19 14:38:19;;;;;;;;;;;11.30;99.90;;;;;;4975942;28;20463;-88
2022/09/19 14:41:04;;;;;;;12.90;3.10;;;11.30;99.90;;;;;;4975640;28;20146;-90
2022/09/19 14:43:49;;;;;;;;;;;11.40;99.90;;;;;;4991202;28;20064;-90
2022/09/19 14:46:20;;;;;;;6.50;2.40;;;11.50;99.90;;;;;;4975038;28;20419;-89
2022/09/19 14:48:58;;;;;;;;;;;11.50;99.90;;;;;;4991102;28;20055;-90
2022/09/19 14:55:04;;;;;;;;;;;11.90;99.90;;;;;;4975097;28;20156;-89
2022/09/19 14:57:30;;;;;;;;;;;11.90;99.90;;;;;;4975135;28;20161;-89
2022/09/19 15:00:11;;;;;;;;;;;12.00;99.90;;;;;;4959899;28;20085;-89
2022/09/19 15:02:37;;;;;;;;;;;12.00;99.90;;;;;;4974588;28;20117;-90
2022/09/19 15:05:15;;;;;;;;;;;12.10;99.90;;;;;;4974660;28;20045;-89
2022/09/19 15:07:42;;;;;;;;;;;12.20;99.90;;;;;;4990869;28;20060;-89
2022/09/19 15:10:30;;;;;;;;;;;12.30;99.90;;;;;;4974036;28;20074;-87
2022/09/19 15:13:15;;;;;;;6.40;1.40;;;12.30;99.90;;;;;;4989269;28;20058;-87
2022/09/19 15:15:45;;;;;;;;;;;12.20;99.90;;;;;;4957333;28;20059;-86
2022/09/19 15:18:25;;;;;;;9.40;2.40;;;12.30;99.90;;;;;;4973268;28;20510;-86
2022/09/19 15:21:01;;;;;;;;;;;12.40;99.90;;;;;;4972899;28;20074;-87
2022/09/19 15:23:30;;;;;;;5.25;2.10;;;12.30;99.90;;;;;;4956982;28;20047;-86
2022/09/19 15:26:04;;;;;;;;;;;12.10;99.90;;;;;;4973480;28;20043;-87
2022/09/19 15:28:37;;;;;;;;;;;12.00;99.90;;;;;;4958536;28;20490;-90
2022/09/19 15:31:09;;;;;;;;;;;11.90;99.90;;;;;;4974732;28;20064;-89
2022/09/19 15:33:37;;;;;;;4.30;1.60;;;11.90;99.90;;;;;;4958257;28;20050;-90
2022/09/19 15:36:06;;;;;;;3.20;1.30;;;11.90;99.90;;;;;;4974539;28;20047;-89
2022/09/19 15:38:36;;;;;;;6.70;1.55;;;11.90;99.90;;;;;;4973656;28;20031;-86
2022/09/19 15:41:05;;;;;;;;;;;11.90;99.90;;;;;;4974286;28;20063;-89
2022/09/19 15:43:32;;;;;;;;;;;11.90;99.90;;;;;;4958141;28;20046;-89